sensor_id;sensor_type;location;lat;lon;timestamp;P1;durP1;ratioP1;P2;durP2;ratioP2
47892;SDS011;33650;51.064;13.756;2022-08-21T00:01:36;34.75;;;20.50;;
47892;SDS011;33650;51.064;13.756;2022-08-21T00:04:08;29.67;;;20.13;;
47892;SDS011;33650;51.064;13.756;2022-08-21T00:06:40;34.35;;;22.77;;
47892;SDS011;33650;51.064;13.756;2022-08-21T00:09:11;32.90;;;20.02;;
47892;SDS011;33650;51.064;13.756;2022-08-21T00:11:42;29.13;;;18.23;;
47892;SDS011;33650;51.064;13.756;2022-08-21T00:14:13;29.88;;;18.40;;
47892;SDS011;33650;51.064;13.756;2022-08-21T00:16:45;35.28;;;21.90;;
47892;SDS011;33650;51.064;13.756;2022-08-21T00:19:16;29.73;;;20.90;;
47892;SDS011;33650;51.064;13.756;2022-08-21T00:21:47;28.95;;;19.50;;
47892;SDS011;33650;51.064;13.756;2022-08-21T00:24:18;32.88;;;20.25;;
47892;SDS011;33650;51.064;13.756;2022-08-21T00:26:50;35.50;;;21.80;;
47892;SDS011;33650;51.064;13.756;2022-08-21T00:29:21;28.55;;;20.00;;
47892;SDS011;33650;51.064;13.756;2022-08-21T00:31:52;31.58;;;21.55;;
47892;SDS011;33650;51.064;13.756;2022-08-21T00:34:23;31.60;;;19.30;;
47892;SDS011;33650;51.064;13.756;2022-08-21T00:36:54;36.72;;;21.02;;
47892;SDS011;33650;51.064;13.756;2022-08-21T00:39:25;27.80;;;19.75;;
47892;SDS011;33650;51.064;13.756;2022-08-21T00:41:56;36.65;;;22.40;;
47892;SDS011;33650;51.064;13.756;2022-08-21T00:44:27;33.90;;;20.42;;
47892;SDS011;33650;51.064;13.756;2022-08-21T00:46:58;32.80;;;19.92;;
47892;SDS011;33650;51.064;13.756;2022-08-21T00:49:29;36.15;;;21.83;;
47892;SDS011;33650;51.064;13.756;2022-08-21T00:52:00;34.28;;;22.98;;
47892;SDS011;33650;51.064;13.756;2022-08-21T00:54:32;32.00;;;22.42;;
47892;SDS011;33650;51.064;13.756;2022-08-21T00:57:05;29.60;;;20.30;;
47892;SDS011;33650;51.064;13.756;2022-08-21T00:59:39;33.58;;;22.15;;
47892;SDS011;33650;51.064;13.756;2022-08-21T01:02:11;34.08;;;21.42;;
47892;SDS011;33650;51.064;13.756;2022-08-21T01:04:42;34.47;;;22.58;;
47892;SDS011;33650;51.064;13.756;2022-08-21T01:07:13;34.08;;;22.27;;
47892;SDS011;33650;51.064;13.756;2022-08-21T01:09:45;34.47;;;20.23;;
47892;SDS011;33650;51.064;13.756;2022-08-21T01:12:17;37.72;;;22.33;;
47892;SDS011;33650;51.064;13.756;2022-08-21T01:14:48;38.90;;;24.05;;
47892;SDS011;33650;51.064;13.756;2022-08-21T01:17:19;34.20;;;22.02;;
47892;SDS011;33650;51.064;13.756;2022-08-21T01:19:51;35.00;;;20.02;;
47892;SDS011;33650;51.064;13.756;2022-08-21T01:22:23;36.50;;;23.48;;
47892;SDS011;33650;51.064;13.756;2022-08-21T01:24:54;28.20;;;18.88;;
47892;SDS011;33650;51.064;13.756;2022-08-21T01:27:25;26.67;;;18.25;;
47892;SDS011;33650;51.064;13.756;2022-08-21T01:29:58;24.10;;;15.73;;
47892;SDS011;33650;51.064;13.756;2022-08-21T01:32:30;22.98;;;15.52;;
47892;SDS011;33650;51.064;13.756;2022-08-21T01:35:01;23.65;;;14.25;;
47892;SDS011;33650;51.064;13.756;2022-08-21T01:37:33;19.52;;;14.32;;
47892;SDS011;33650;51.064;13.756;2022-08-21T01:40:05;17.80;;;12.30;;
47892;SDS011;33650;51.064;13.756;2022-08-21T01:42:37;18.38;;;12.18;;
47892;SDS011;33650;51.064;13.756;2022-08-21T01:45:08;16.85;;;11.63;;
47892;SDS011;33650;51.064;13.756;2022-08-21T01:47:39;15.60;;;11.27;;
47892;SDS011;33650;51.064;13.756;2022-08-21T01:50:11;17.23;;;11.85;;
47892;SDS011;33650;51.064;13.756;2022-08-21T01:52:43;12.15;;;9.48;;
47892;SDS011;33650;51.064;13.756;2022-08-21T01:55:14;16.75;;;11.20;;
47892;SDS011;33650;51.064;13.756;2022-08-21T01:57:46;13.85;;;10.18;;
47892;SDS011;33650;51.064;13.756;2022-08-21T02:00:18;13.43;;;8.65;;
47892;SDS011;33650;51.064;13.756;2022-08-21T02:02:49;14.50;;;10.68;;
47892;SDS011;33650;51.064;13.756;2022-08-21T02:05:21;13.45;;;9.50;;
47892;SDS011;33650;51.064;13.756;2022-08-21T02:07:52;14.07;;;8.50;;
47892;SDS011;33650;51.064;13.756;2022-08-21T02:10:27;12.60;;;8.20;;
47892;SDS011;33650;51.064;13.756;2022-08-21T02:12:59;19.23;;;10.70;;
47892;SDS011;33650;51.064;13.756;2022-08-21T02:15:30;12.38;;;8.63;;
47892;SDS011;33650;51.064;13.756;2022-08-21T02:18:02;11.85;;;8.57;;
47892;SDS011;33650;51.064;13.756;2022-08-21T02:20:38;11.25;;;8.25;;
47892;SDS011;33650;51.064;13.756;2022-08-21T02:23:09;14.93;;;10.48;;
47892;SDS011;33650;51.064;13.756;2022-08-21T02:25:41;11.88;;;8.88;;
47892;SDS011;33650;51.064;13.756;2022-08-21T02:28:13;12.27;;;8.48;;
47892;SDS011;33650;51.064;13.756;2022-08-21T02:30:46;9.82;;;8.23;;
47892;SDS011;33650;51.064;13.756;2022-08-21T02:33:17;12.88;;;8.80;;
47892;SDS011;33650;51.064;13.756;2022-08-21T02:35:48;12.75;;;9.80;;
47892;SDS011;33650;51.064;13.756;2022-08-21T02:38:22;18.80;;;11.48;;
47892;SDS011;33650;51.064;13.756;2022-08-21T02:40:53;13.10;;;8.70;;
47892;SDS011;33650;51.064;13.756;2022-08-21T02:43:25;16.38;;;11.20;;
47892;SDS011;33650;51.064;13.756;2022-08-21T02:45:57;15.48;;;10.15;;
47892;SDS011;33650;51.064;13.756;2022-08-21T02:48:29;11.85;;;9.27;;
47892;SDS011;33650;51.064;13.756;2022-08-21T02:51:02;12.60;;;9.35;;
47892;SDS011;33650;51.064;13.756;2022-08-21T02:53:34;15.68;;;9.73;;
47892;SDS011;33650;51.064;13.756;2022-08-21T02:56:07;11.57;;;8.25;;
47892;SDS011;33650;51.064;13.756;2022-08-21T02:58:41;11.52;;;8.68;;
47892;SDS011;33650;51.064;13.756;2022-08-21T03:01:13;12.88;;;9.48;;
47892;SDS011;33650;51.064;13.756;2022-08-21T03:03:44;10.90;;;8.48;;
47892;SDS011;33650;51.064;13.756;2022-08-21T03:06:16;10.68;;;8.27;;
47892;SDS011;33650;51.064;13.756;2022-08-21T03:08:48;13.95;;;9.18;;
47892;SDS011;33650;51.064;13.756;2022-08-21T03:11:19;13.93;;;9.65;;
47892;SDS011;33650;51.064;13.756;2022-08-21T03:13:50;11.85;;;10.10;;
47892;SDS011;33650;51.064;13.756;2022-08-21T03:16:21;12.00;;;9.40;;
47892;SDS011;33650;51.064;13.756;2022-08-21T03:18:52;13.30;;;9.52;;
47892;SDS011;33650;51.064;13.756;2022-08-21T03:21:23;11.77;;;9.48;;
47892;SDS011;33650;51.064;13.756;2022-08-21T03:23:54;12.50;;;8.52;;
47892;SDS011;33650;51.064;13.756;2022-08-21T03:26:25;14.35;;;9.50;;
47892;SDS011;33650;51.064;13.756;2022-08-21T03:28:56;13.70;;;9.70;;
47892;SDS011;33650;51.064;13.756;2022-08-21T03:31:28;11.95;;;9.15;;
47892;SDS011;33650;51.064;13.756;2022-08-21T03:34:00;11.77;;;9.82;;
47892;SDS011;33650;51.064;13.756;2022-08-21T03:36:32;12.55;;;8.48;;
47892;SDS011;33650;51.064;13.756;2022-08-21T03:39:03;12.85;;;9.07;;
47892;SDS011;33650;51.064;13.756;2022-08-21T03:41:34;13.75;;;9.93;;
47892;SDS011;33650;51.064;13.756;2022-08-21T03:44:05;12.68;;;8.90;;
47892;SDS011;33650;51.064;13.756;2022-08-21T03:46:36;12.02;;;9.32;;
47892;SDS011;33650;51.064;13.756;2022-08-21T03:49:07;11.23;;;9.18;;
47892;SDS011;33650;51.064;13.756;2022-08-21T03:51:38;13.23;;;10.00;;
47892;SDS011;33650;51.064;13.756;2022-08-21T03:54:09;16.27;;;11.02;;
47892;SDS011;33650;51.064;13.756;2022-08-21T03:56:40;13.32;;;8.60;;
47892;SDS011;33650;51.064;13.756;2022-08-21T03:59:11;14.07;;;9.73;;
47892;SDS011;33650;51.064;13.756;2022-08-21T04:01:57;12.90;;;9.52;;
47892;SDS011;33650;51.064;13.756;2022-08-21T04:04:29;11.63;;;9.02;;
47892;SDS011;33650;51.064;13.756;2022-08-21T04:07:00;14.45;;;10.38;;
47892;SDS011;33650;51.064;13.756;2022-08-21T04:09:31;16.05;;;9.93;;
47892;SDS011;33650;51.064;13.756;2022-08-21T04:12:02;12.80;;;9.30;;
47892;SDS011;33650;51.064;13.756;2022-08-21T04:14:33;13.75;;;10.75;;
47892;SDS011;33650;51.064;13.756;2022-08-21T04:17:05;12.45;;;9.68;;
47892;SDS011;33650;51.064;13.756;2022-08-21T04:19:36;16.00;;;11.38;;
47892;SDS011;33650;51.064;13.756;2022-08-21T04:22:07;11.20;;;9.13;;
47892;SDS011;33650;51.064;13.756;2022-08-21T04:24:38;14.65;;;10.75;;
47892;SDS011;33650;51.064;13.756;2022-08-21T04:27:09;12.18;;;9.30;;
47892;SDS011;33650;51.064;13.756;2022-08-21T04:29:41;10.82;;;8.82;;
47892;SDS011;33650;51.064;13.756;2022-08-21T04:32:12;10.45;;;8.40;;
47892;SDS011;33650;51.064;13.756;2022-08-21T04:34:43;14.70;;;10.15;;
47892;SDS011;33650;51.064;13.756;2022-08-21T04:37:14;12.65;;;9.25;;
47892;SDS011;33650;51.064;13.756;2022-08-21T04:39:45;13.13;;;10.05;;
47892;SDS011;33650;51.064;13.756;2022-08-21T04:42:16;14.88;;;9.43;;
47892;SDS011;33650;51.064;13.756;2022-08-21T04:44:47;12.48;;;8.93;;
47892;SDS011;33650;51.064;13.756;2022-08-21T04:47:19;13.55;;;8.95;;
47892;SDS011;33650;51.064;13.756;2022-08-21T04:49:50;16.67;;;9.82;;
47892;SDS011;33650;51.064;13.756;2022-08-21T04:52:21;14.88;;;9.95;;
47892;SDS011;33650;51.064;13.756;2022-08-21T04:54:53;11.50;;;9.50;;
47892;SDS011;33650;51.064;13.756;2022-08-21T04:57:24;10.93;;;9.07;;
47892;SDS011;33650;51.064;13.756;2022-08-21T04:59:56;12.32;;;9.65;;
47892;SDS011;33650;51.064;13.756;2022-08-21T05:02:27;15.95;;;9.82;;
47892;SDS011;33650;51.064;13.756;2022-08-21T05:04:58;12.00;;;9.27;;
47892;SDS011;33650;51.064;13.756;2022-08-21T05:07:30;10.43;;;7.80;;
47892;SDS011;33650;51.064;13.756;2022-08-21T05:10:02;13.15;;;10.18;;
47892;SDS011;33650;51.064;13.756;2022-08-21T05:12:33;11.80;;;8.77;;
47892;SDS011;33650;51.064;13.756;2022-08-21T05:15:05;13.63;;;8.80;;
47892;SDS011;33650;51.064;13.756;2022-08-21T05:17:36;11.70;;;8.10;;
47892;SDS011;33650;51.064;13.756;2022-08-21T05:20:12;13.07;;;8.75;;
47892;SDS011;33650;51.064;13.756;2022-08-21T05:22:43;12.10;;;8.07;;
47892;SDS011;33650;51.064;13.756;2022-08-21T05:25:15;9.63;;;8.60;;
47892;SDS011;33650;51.064;13.756;2022-08-21T05:27:46;9.73;;;8.73;;
47892;SDS011;33650;51.064;13.756;2022-08-21T05:30:18;9.98;;;8.90;;
47892;SDS011;33650;51.064;13.756;2022-08-21T05:32:49;11.32;;;9.95;;
47892;SDS011;33650;51.064;13.756;2022-08-21T05:35:20;11.00;;;9.32;;
47892;SDS011;33650;51.064;13.756;2022-08-21T05:37:51;13.00;;;8.95;;
47892;SDS011;33650;51.064;13.756;2022-08-21T05:40:23;12.93;;;9.88;;
47892;SDS011;33650;51.064;13.756;2022-08-21T05:42:54;13.43;;;9.02;;
47892;SDS011;33650;51.064;13.756;2022-08-21T05:45:28;11.80;;;8.90;;
47892;SDS011;33650;51.064;13.756;2022-08-21T05:48:05;11.85;;;9.48;;
47892;SDS011;33650;51.064;13.756;2022-08-21T05:50:36;12.40;;;9.13;;
47892;SDS011;33650;51.064;13.756;2022-08-21T05:53:08;14.82;;;9.27;;
47892;SDS011;33650;51.064;13.756;2022-08-21T05:55:39;15.25;;;10.55;;
47892;SDS011;33650;51.064;13.756;2022-08-21T05:58:11;10.07;;;7.97;;
47892;SDS011;33650;51.064;13.756;2022-08-21T06:00:43;14.43;;;9.40;;
47892;SDS011;33650;51.064;13.756;2022-08-21T06:03:18;12.43;;;9.02;;
47892;SDS011;33650;51.064;13.756;2022-08-21T06:05:50;13.25;;;9.63;;
47892;SDS011;33650;51.064;13.756;2022-08-21T06:08:21;15.82;;;11.18;;
47892;SDS011;33650;51.064;13.756;2022-08-21T06:10:54;16.15;;;10.55;;
47892;SDS011;33650;51.064;13.756;2022-08-21T06:13:26;15.60;;;12.13;;
47892;SDS011;33650;51.064;13.756;2022-08-21T06:16:01;17.20;;;11.77;;
47892;SDS011;33650;51.064;13.756;2022-08-21T06:18:32;16.65;;;11.63;;
47892;SDS011;33650;51.064;13.756;2022-08-21T06:21:04;15.35;;;11.55;;
47892;SDS011;33650;51.064;13.756;2022-08-21T06:23:35;14.52;;;11.32;;
47892;SDS011;33650;51.064;13.756;2022-08-21T06:26:06;15.23;;;11.05;;
47892;SDS011;33650;51.064;13.756;2022-08-21T06:28:38;19.73;;;15.38;;
47892;SDS011;33650;51.064;13.756;2022-08-21T06:31:13;22.23;;;16.30;;
47892;SDS011;33650;51.064;13.756;2022-08-21T06:33:45;24.08;;;14.98;;
47892;SDS011;33650;51.064;13.756;2022-08-21T06:36:16;22.38;;;15.50;;
47892;SDS011;33650;51.064;13.756;2022-08-21T06:38:47;26.60;;;16.20;;
47892;SDS011;33650;51.064;13.756;2022-08-21T06:41:19;22.17;;;15.10;;
47892;SDS011;33650;51.064;13.756;2022-08-21T06:43:50;20.58;;;15.90;;
47892;SDS011;33650;51.064;13.756;2022-08-21T06:46:22;22.17;;;17.23;;
47892;SDS011;33650;51.064;13.756;2022-08-21T06:48:53;19.48;;;14.57;;
47892;SDS011;33650;51.064;13.756;2022-08-21T06:51:24;21.45;;;15.27;;
47892;SDS011;33650;51.064;13.756;2022-08-21T06:53:56;18.70;;;16.25;;
47892;SDS011;33650;51.064;13.756;2022-08-21T06:56:27;21.15;;;15.82;;
47892;SDS011;33650;51.064;13.756;2022-08-21T06:58:58;21.95;;;16.38;;
47892;SDS011;33650;51.064;13.756;2022-08-21T07:01:29;20.33;;;15.45;;
47892;SDS011;33650;51.064;13.756;2022-08-21T07:04:00;22.17;;;16.10;;
47892;SDS011;33650;51.064;13.756;2022-08-21T07:06:32;19.38;;;13.75;;
47892;SDS011;33650;51.064;13.756;2022-08-21T07:09:03;16.80;;;14.45;;
47892;SDS011;33650;51.064;13.756;2022-08-21T07:11:34;18.25;;;13.52;;
47892;SDS011;33650;51.064;13.756;2022-08-21T07:14:06;19.45;;;15.32;;
47892;SDS011;33650;51.064;13.756;2022-08-21T07:16:37;18.90;;;14.60;;
47892;SDS011;33650;51.064;13.756;2022-08-21T07:19:08;18.58;;;16.58;;
47892;SDS011;33650;51.064;13.756;2022-08-21T07:21:39;18.17;;;13.98;;
47892;SDS011;33650;51.064;13.756;2022-08-21T07:24:10;15.75;;;14.20;;
47892;SDS011;33650;51.064;13.756;2022-08-21T07:26:41;16.02;;;13.73;;
47892;SDS011;33650;51.064;13.756;2022-08-21T07:29:12;17.00;;;13.73;;
47892;SDS011;33650;51.064;13.756;2022-08-21T07:31:43;17.58;;;14.20;;
47892;SDS011;33650;51.064;13.756;2022-08-21T07:34:14;17.08;;;15.38;;
47892;SDS011;33650;51.064;13.756;2022-08-21T07:36:45;15.98;;;13.80;;
47892;SDS011;33650;51.064;13.756;2022-08-21T07:39:18;15.90;;;13.75;;
47892;SDS011;33650;51.064;13.756;2022-08-21T07:41:49;21.30;;;14.50;;
47892;SDS011;33650;51.064;13.756;2022-08-21T07:44:20;16.65;;;13.27;;
47892;SDS011;33650;51.064;13.756;2022-08-21T07:46:51;14.65;;;12.52;;
47892;SDS011;33650;51.064;13.756;2022-08-21T07:49:22;15.45;;;13.75;;
47892;SDS011;33650;51.064;13.756;2022-08-21T07:51:53;16.10;;;13.98;;
47892;SDS011;33650;51.064;13.756;2022-08-21T07:54:25;15.80;;;12.65;;
47892;SDS011;33650;51.064;13.756;2022-08-21T07:56:56;15.10;;;12.30;;
47892;SDS011;33650;51.064;13.756;2022-08-21T07:59:27;14.45;;;12.27;;
47892;SDS011;33650;51.064;13.756;2022-08-21T08:01:59;16.50;;;11.77;;
47892;SDS011;33650;51.064;13.756;2022-08-21T08:04:30;13.90;;;12.40;;
47892;SDS011;33650;51.064;13.756;2022-08-21T08:07:01;16.15;;;12.40;;
47892;SDS011;33650;51.064;13.756;2022-08-21T08:09:32;12.00;;;10.27;;
47892;SDS011;33650;51.064;13.756;2022-08-21T08:12:04;14.52;;;12.48;;
47892;SDS011;33650;51.064;13.756;2022-08-21T08:14:35;14.77;;;11.18;;
47892;SDS011;33650;51.064;13.756;2022-08-21T08:17:06;14.38;;;10.80;;
47892;SDS011;33650;51.064;13.756;2022-08-21T08:19:37;16.42;;;13.25;;
47892;SDS011;33650;51.064;13.756;2022-08-21T08:22:12;12.05;;;10.10;;
47892;SDS011;33650;51.064;13.756;2022-08-21T08:24:43;12.68;;;10.82;;
47892;SDS011;33650;51.064;13.756;2022-08-21T08:27:14;11.63;;;10.07;;
47892;SDS011;33650;51.064;13.756;2022-08-21T08:29:47;12.60;;;9.65;;
47892;SDS011;33650;51.064;13.756;2022-08-21T08:32:18;12.38;;;10.65;;
47892;SDS011;33650;51.064;13.756;2022-08-21T08:34:50;17.45;;;12.35;;
47892;SDS011;33650;51.064;13.756;2022-08-21T08:37:21;11.82;;;10.63;;
47892;SDS011;33650;51.064;13.756;2022-08-21T08:39:52;13.30;;;10.88;;
47892;SDS011;33650;51.064;13.756;2022-08-21T08:42:25;12.77;;;11.40;;
47892;SDS011;33650;51.064;13.756;2022-08-21T08:47:32;11.25;;;10.05;;
47892;SDS011;33650;51.064;13.756;2022-08-21T08:50:25;11.77;;;10.23;;
47892;SDS011;33650;51.064;13.756;2022-08-21T08:52:59;12.95;;;10.70;;
47892;SDS011;33650;51.064;13.756;2022-08-21T08:55:34;11.50;;;8.98;;
47892;SDS011;33650;51.064;13.756;2022-08-21T08:58:08;12.35;;;10.40;;
47892;SDS011;33650;51.064;13.756;2022-08-21T09:00:39;13.50;;;10.73;;
47892;SDS011;33650;51.064;13.756;2022-08-21T09:03:10;12.10;;;9.70;;
47892;SDS011;33650;51.064;13.756;2022-08-21T09:05:45;12.70;;;10.13;;
47892;SDS011;33650;51.064;13.756;2022-08-21T09:10:57;10.45;;;8.38;;
47892;SDS011;33650;51.064;13.756;2022-08-21T09:19:04;8.73;;;7.82;;
47892;SDS011;33650;51.064;13.756;2022-08-21T09:27:04;6.85;;;5.35;;
47892;SDS011;33650;51.064;13.756;2022-08-21T09:29:38;6.95;;;5.07;;
47892;SDS011;33650;51.064;13.756;2022-08-21T09:32:17;7.15;;;6.30;;
47892;SDS011;33650;51.064;13.756;2022-08-21T09:34:59;7.05;;;6.13;;
47892;SDS011;33650;51.064;13.756;2022-08-21T09:37:31;5.43;;;4.93;;
47892;SDS011;33650;51.064;13.756;2022-08-21T09:40:15;10.35;;;6.10;;
47892;SDS011;33650;51.064;13.756;2022-08-21T09:42:54;7.40;;;4.50;;
47892;SDS011;33650;51.064;13.756;2022-08-21T09:45:25;5.40;;;4.87;;
47892;SDS011;33650;51.064;13.756;2022-08-21T09:48:07;3.28;;;2.97;;
47892;SDS011;33650;51.064;13.756;2022-08-21T09:50:38;6.03;;;3.33;;
47892;SDS011;33650;51.064;13.756;2022-08-21T09:55:54;5.57;;;3.10;;
47892;SDS011;33650;51.064;13.756;2022-08-21T09:59:01;4.28;;;3.58;;
47892;SDS011;33650;51.064;13.756;2022-08-21T10:01:47;4.82;;;3.30;;
47892;SDS011;33650;51.064;13.756;2022-08-21T10:04:22;4.05;;;3.63;;
47892;SDS011;33650;51.064;13.756;2022-08-21T10:06:53;4.07;;;2.47;;
47892;SDS011;33650;51.064;13.756;2022-08-21T10:09:25;4.78;;;2.70;;
47892;SDS011;33650;51.064;13.756;2022-08-21T10:12:07;3.40;;;3.05;;
47892;SDS011;33650;51.064;13.756;2022-08-21T10:17:16;4.20;;;2.75;;
47892;SDS011;33650;51.064;13.756;2022-08-21T10:36:33;2.20;;;2.00;;
47892;SDS011;33650;51.064;13.756;2022-08-21T10:38:58;3.88;;;2.65;;
47892;SDS011;33650;51.064;13.756;2022-08-21T10:44:30;4.22;;;2.85;;
47892;SDS011;33650;51.064;13.756;2022-08-21T10:47:08;2.53;;;1.83;;
47892;SDS011;33650;51.064;13.756;2022-08-21T10:55:04;3.80;;;3.25;;
47892;SDS011;33650;51.064;13.756;2022-08-21T11:00:22;2.53;;;1.85;;
47892;SDS011;33650;51.064;13.756;2022-08-21T11:05:33;2.20;;;1.98;;
47892;SDS011;33650;51.064;13.756;2022-08-21T11:08:14;2.15;;;2.00;;
47892;SDS011;33650;51.064;13.756;2022-08-21T11:10:54;2.40;;;2.03;;
47892;SDS011;33650;51.064;13.756;2022-08-21T11:16:02;3.47;;;1.70;;
47892;SDS011;33650;51.064;13.756;2022-08-21T11:18:36;2.55;;;2.30;;
47892;SDS011;33650;51.064;13.756;2022-08-21T11:23:48;2.17;;;1.60;;
47892;SDS011;33650;51.064;13.756;2022-08-21T11:29:16;2.03;;;1.83;;
47892;SDS011;33650;51.064;13.756;2022-08-21T11:31:54;5.60;;;1.95;;
47892;SDS011;33650;51.064;13.756;2022-08-21T11:34:46;3.72;;;1.98;;
47892;SDS011;33650;51.064;13.756;2022-08-21T11:37:30;3.20;;;1.92;;
47892;SDS011;33650;51.064;13.756;2022-08-21T11:40:13;1.88;;;1.48;;
47892;SDS011;33650;51.064;13.756;2022-08-21T11:42:53;3.53;;;2.15;;
47892;SDS011;33650;51.064;13.756;2022-08-21T11:45:48;2.95;;;1.98;;
47892;SDS011;33650;51.064;13.756;2022-08-21T11:51:04;1.52;;;1.35;;
47892;SDS011;33650;51.064;13.756;2022-08-21T11:54:01;2.42;;;1.73;;
47892;SDS011;33650;51.064;13.756;2022-08-21T11:56:30;2.25;;;1.73;;
47892;SDS011;33650;51.064;13.756;2022-08-21T11:59:05;3.95;;;1.75;;
47892;SDS011;33650;51.064;13.756;2022-08-21T12:01:39;2.78;;;1.42;;
47892;SDS011;33650;51.064;13.756;2022-08-21T12:04:18;1.27;;;0.95;;
47892;SDS011;33650;51.064;13.756;2022-08-21T12:06:53;1.63;;;1.30;;
47892;SDS011;33650;51.064;13.756;2022-08-21T12:14:46;1.98;;;1.88;;
47892;SDS011;33650;51.064;13.756;2022-08-21T12:17:19;1.00;;;0.90;;
47892;SDS011;33650;51.064;13.756;2022-08-21T12:19:57;1.95;;;1.73;;
47892;SDS011;33650;51.064;13.756;2022-08-21T12:22:37;1.10;;;1.00;;
47892;SDS011;33650;51.064;13.756;2022-08-21T12:25:16;1.67;;;1.45;;
47892;SDS011;33650;51.064;13.756;2022-08-21T12:27:49;7.10;;;1.30;;
47892;SDS011;33650;51.064;13.756;2022-08-21T12:32:59;1.75;;;1.10;;
47892;SDS011;33650;51.064;13.756;2022-08-21T12:35:32;1.55;;;0.90;;
47892;SDS011;33650;51.064;13.756;2022-08-21T12:38:11;4.50;;;1.65;;
47892;SDS011;33650;51.064;13.756;2022-08-21T12:40:50;1.25;;;1.15;;
47892;SDS011;33650;51.064;13.756;2022-08-21T12:43:27;1.80;;;1.13;;
47892;SDS011;33650;51.064;13.756;2022-08-21T12:45:59;2.35;;;0.95;;
47892;SDS011;33650;51.064;13.756;2022-08-21T12:48:35;2.60;;;0.88;;
47892;SDS011;33650;51.064;13.756;2022-08-21T12:51:14;2.65;;;1.38;;
47892;SDS011;33650;51.064;13.756;2022-08-21T12:53:50;1.35;;;1.00;;
47892;SDS011;33650;51.064;13.756;2022-08-21T12:56:25;1.30;;;1.15;;
47892;SDS011;33650;51.064;13.756;2022-08-21T12:59:00;3.33;;;1.13;;
47892;SDS011;33650;51.064;13.756;2022-08-21T13:01:35;2.85;;;1.02;;
47892;SDS011;33650;51.064;13.756;2022-08-21T13:04:08;2.38;;;0.98;;
47892;SDS011;33650;51.064;13.756;2022-08-21T13:06:41;1.83;;;0.90;;
47892;SDS011;33650;51.064;13.756;2022-08-21T13:09:14;2.45;;;1.33;;
47892;SDS011;33650;51.064;13.756;2022-08-21T13:11:46;1.08;;;0.85;;
47892;SDS011;33650;51.064;13.756;2022-08-21T13:16:58;2.78;;;1.73;;
47892;SDS011;33650;51.064;13.756;2022-08-21T13:19:31;2.00;;;1.02;;
47892;SDS011;33650;51.064;13.756;2022-08-21T13:22:03;1.92;;;0.95;;
47892;SDS011;33650;51.064;13.756;2022-08-21T13:24:35;1.58;;;1.25;;
47892;SDS011;33650;51.064;13.756;2022-08-21T13:30:22;3.00;;;2.33;;
47892;SDS011;33650;51.064;13.756;2022-08-21T13:32:58;1.77;;;1.33;;
47892;SDS011;33650;51.064;13.756;2022-08-21T13:35:36;2.00;;;1.25;;
47892;SDS011;33650;51.064;13.756;2022-08-21T13:38:19;1.40;;;1.30;;
47892;SDS011;33650;51.064;13.756;2022-08-21T13:40:51;1.58;;;0.85;;
47892;SDS011;33650;51.064;13.756;2022-08-21T13:43:32;0.98;;;0.70;;
47892;SDS011;33650;51.064;13.756;2022-08-21T13:48:34;2.22;;;1.17;;
47892;SDS011;33650;51.064;13.756;2022-08-21T13:51:05;1.00;;;0.93;;
47892;SDS011;33650;51.064;13.756;2022-08-21T13:56:47;2.05;;;0.93;;
47892;SDS011;33650;51.064;13.756;2022-08-21T13:59:11;1.60;;;0.82;;
47892;SDS011;33650;51.064;13.756;2022-08-21T14:01:49;1.92;;;0.90;;
47892;SDS011;33650;51.064;13.756;2022-08-21T14:04:26;1.25;;;0.98;;
47892;SDS011;33650;51.064;13.756;2022-08-21T14:06:58;2.63;;;1.00;;
47892;SDS011;33650;51.064;13.756;2022-08-21T14:09:33;4.43;;;1.48;;
47892;SDS011;33650;51.064;13.756;2022-08-21T14:12:19;3.88;;;1.02;;
47892;SDS011;33650;51.064;13.756;2022-08-21T14:14:54;2.72;;;1.20;;
47892;SDS011;33650;51.064;13.756;2022-08-21T14:17:33;1.55;;;1.08;;
47892;SDS011;33650;51.064;13.756;2022-08-21T14:20:08;3.45;;;1.17;;
47892;SDS011;33650;51.064;13.756;2022-08-21T14:22:41;3.10;;;1.52;;
47892;SDS011;33650;51.064;13.756;2022-08-21T14:25:14;1.55;;;1.05;;
47892;SDS011;33650;51.064;13.756;2022-08-21T14:27:53;1.80;;;1.13;;
47892;SDS011;33650;51.064;13.756;2022-08-21T14:30:29;1.80;;;1.63;;
47892;SDS011;33650;51.064;13.756;2022-08-21T14:33:00;2.35;;;1.33;;
47892;SDS011;33650;51.064;13.756;2022-08-21T14:35:32;2.47;;;2.13;;
47892;SDS011;33650;51.064;13.756;2022-08-21T14:38:11;3.22;;;1.70;;
47892;SDS011;33650;51.064;13.756;2022-08-21T14:43:13;1.60;;;1.50;;
47892;SDS011;33650;51.064;13.756;2022-08-21T14:45:44;2.47;;;1.17;;
47892;SDS011;33650;51.064;13.756;2022-08-21T14:48:15;1.48;;;0.93;;
47892;SDS011;33650;51.064;13.756;2022-08-21T14:50:47;3.03;;;1.33;;
47892;SDS011;33650;51.064;13.756;2022-08-21T14:53:18;2.60;;;1.25;;
47892;SDS011;33650;51.064;13.756;2022-08-21T14:55:49;4.18;;;1.08;;
47892;SDS011;33650;51.064;13.756;2022-08-21T14:58:37;1.08;;;0.93;;
47892;SDS011;33650;51.064;13.756;2022-08-21T15:01:09;1.95;;;1.05;;
47892;SDS011;33650;51.064;13.756;2022-08-21T15:03:41;1.77;;;0.85;;
47892;SDS011;33650;51.064;13.756;2022-08-21T15:06:12;2.70;;;1.15;;
47892;SDS011;33650;51.064;13.756;2022-08-21T15:08:43;1.48;;;1.25;;
47892;SDS011;33650;51.064;13.756;2022-08-21T15:11:18;1.30;;;1.00;;
47892;SDS011;33650;51.064;13.756;2022-08-21T15:13:52;1.38;;;1.27;;
47892;SDS011;33650;51.064;13.756;2022-08-21T15:16:23;1.83;;;1.02;;
47892;SDS011;33650;51.064;13.756;2022-08-21T15:18:55;3.78;;;1.08;;
47892;SDS011;33650;51.064;13.756;2022-08-21T15:21:26;2.47;;;1.05;;
47892;SDS011;33650;51.064;13.756;2022-08-21T15:23:57;1.42;;;1.17;;
47892;SDS011;33650;51.064;13.756;2022-08-21T15:26:28;1.13;;;1.08;;
47892;SDS011;33650;51.064;13.756;2022-08-21T15:28:59;3.53;;;0.70;;
47892;SDS011;33650;51.064;13.756;2022-08-21T15:31:30;1.55;;;1.40;;
47892;SDS011;33650;51.064;13.756;2022-08-21T15:34:01;0.80;;;0.80;;
47892;SDS011;33650;51.064;13.756;2022-08-21T15:36:33;1.08;;;1.02;;
47892;SDS011;33650;51.064;13.756;2022-08-21T15:39:04;3.25;;;1.20;;
47892;SDS011;33650;51.064;13.756;2022-08-21T15:41:35;1.63;;;1.38;;
47892;SDS011;33650;51.064;13.756;2022-08-21T15:44:06;1.23;;;1.15;;
47892;SDS011;33650;51.064;13.756;2022-08-21T15:46:39;1.83;;;1.45;;
47892;SDS011;33650;51.064;13.756;2022-08-21T15:49:11;1.10;;;1.00;;
47892;SDS011;33650;51.064;13.756;2022-08-21T15:51:42;1.75;;;1.23;;
47892;SDS011;33650;51.064;13.756;2022-08-21T15:54:13;1.88;;;1.00;;
47892;SDS011;33650;51.064;13.756;2022-08-21T15:56:45;3.33;;;1.42;;
47892;SDS011;33650;51.064;13.756;2022-08-21T15:59:18;2.70;;;0.90;;
47892;SDS011;33650;51.064;13.756;2022-08-21T16:01:51;3.92;;;1.00;;
47892;SDS011;33650;51.064;13.756;2022-08-21T16:04:27;1.30;;;1.20;;
47892;SDS011;33650;51.064;13.756;2022-08-21T16:06:58;4.72;;;1.15;;
47892;SDS011;33650;51.064;13.756;2022-08-21T16:09:29;1.55;;;0.95;;
47892;SDS011;33650;51.064;13.756;2022-08-21T16:12:00;1.92;;;0.93;;
47892;SDS011;33650;51.064;13.756;2022-08-21T16:14:32;3.85;;;0.93;;
47892;SDS011;33650;51.064;13.756;2022-08-21T16:17:04;2.22;;;0.77;;
47892;SDS011;33650;51.064;13.756;2022-08-21T16:19:36;1.13;;;0.90;;